sensor_id;sensor_type;location;lat;lon;timestamp;temperature;humidity
6244;DHT22;3155;49.940;8.450;2023-03-01T00:01:19;-2.40;99.90
6244;DHT22;3155;49.940;8.450;2023-03-01T00:03:50;-2.40;99.90
6244;DHT22;3155;49.940;8.450;2023-03-01T00:06:20;-2.40;99.90
6244;DHT22;3155;49.940;8.450;2023-03-01T00:08:47;-2.50;99.90
6244;DHT22;3155;49.940;8.450;2023-03-01T00:11:28;-2.50;99.90
6244;DHT22;3155;49.940;8.450;2023-03-01T00:13:59;-2.50;99.90
6244;DHT22;3155;49.940;8.450;2023-03-01T00:16:30;-2.50;99.90
6244;DHT22;3155;49.940;8.450;2023-03-01T00:18:58;-2.60;99.90
6244;DHT22;3155;49.940;8.450;2023-03-01T00:21:28;-2.60;99.90
6244;DHT22;3155;49.940;8.450;2023-03-01T00:24:03;-2.50;99.90
6244;DHT22;3155;49.940;8.450;2023-03-01T00:26:31;-2.40;99.90
6244;DHT22;3155;49.940;8.450;2023-03-01T00:29:01;-2.30;99.90
6244;DHT22;3155;49.940;8.450;2023-03-01T00:31:29;-2.30;99.90
6244;DHT22;3155;49.940;8.450;2023-03-01T00:34:01;-2.30;99.90
6244;DHT22;3155;49.940;8.450;2023-03-01T00:36:32;-2.40;99.90
6244;DHT22;3155;49.940;8.450;2023-03-01T00:39:00;-2.60;99.90
6244;DHT22;3155;49.940;8.450;2023-03-01T00:41:27;-2.70;99.90
6244;DHT22;3155;49.940;8.450;2023-03-01T00:43:54;-2.80;99.90
6244;DHT22;3155;49.940;8.450;2023-03-01T00:46:23;-2.90;99.90
6244;DHT22;3155;49.940;8.450;2023-03-01T00:48:52;-2.80;99.90
6244;DHT22;3155;49.940;8.450;2023-03-01T00:51:27;-2.90;99.90
6244;DHT22;3155;49.940;8.450;2023-03-01T00:53:59;-2.90;99.90
6244;DHT22;3155;49.940;8.450;2023-03-01T00:56:26;-2.90;99.90
6244;DHT22;3155;49.940;8.450;2023-03-01T00:58:54;-3.00;99.90
6244;DHT22;3155;49.940;8.450;2023-03-01T01:01:24;-3.00;99.90
6244;DHT22;3155;49.940;8.450;2023-03-01T01:03:56;-2.90;99.90
6244;DHT22;3155;49.940;8.450;2023-03-01T01:06:33;-2.90;99.90
6244;DHT22;3155;49.940;8.450;2023-03-01T01:09:01;-2.80;99.90
6244;DHT22;3155;49.940;8.450;2023-03-01T01:11:30;-2.70;99.90
6244;DHT22;3155;49.940;8.450;2023-03-01T01:13:58;-2.80;99.90
6244;DHT22;3155;49.940;8.450;2023-03-01T01:16:26;-2.70;99.90
6244;DHT22;3155;49.940;8.450;2023-03-01T01:18:55;-2.70;99.90
6244;DHT22;3155;49.940;8.450;2023-03-01T01:21:24;-2.60;99.90
6244;DHT22;3155;49.940;8.450;2023-03-01T01:23:51;-2.50;99.90
6244;DHT22;3155;49.940;8.450;2023-03-01T01:26:30;-2.40;99.90
6244;DHT22;3155;49.940;8.450;2023-03-01T01:28:57;-2.30;99.90
6244;DHT22;3155;49.940;8.450;2023-03-01T01:31:32;-2.30;99.90
6244;DHT22;3155;49.940;8.450;2023-03-01T01:34:01;-2.30;99.90
6244;DHT22;3155;49.940;8.450;2023-03-01T01:36:29;-2.40;99.90
6244;DHT22;3155;49.940;8.450;2023-03-01T01:38:56;-2.40;99.90
6244;DHT22;3155;49.940;8.450;2023-03-01T01:41:28;-2.50;99.90
6244;DHT22;3155;49.940;8.450;2023-03-01T01:44:21;-2.40;99.90
6244;DHT22;3155;49.940;8.450;2023-03-01T01:47:00;-2.40;99.90
6244;DHT22;3155;49.940;8.450;2023-03-01T01:49:47;-2.50;99.90
6244;DHT22;3155;49.940;8.450;2023-03-01T01:52:22;-2.50;99.90
6244;DHT22;3155;49.940;8.450;2023-03-01T01:54:54;-2.60;99.90
6244;DHT22;3155;49.940;8.450;2023-03-01T01:57:26;-2.70;99.90
6244;DHT22;3155;49.940;8.450;2023-03-01T01:59:57;-2.70;99.90
6244;DHT22;3155;49.940;8.450;2023-03-01T02:02:25;-2.70;99.90
6244;DHT22;3155;49.940;8.450;2023-03-01T02:04:58;-2.60;99.90
6244;DHT22;3155;49.940;8.450;2023-03-01T02:07:30;-2.60;99.90
6244;DHT22;3155;49.940;8.450;2023-03-01T02:09:57;-2.70;99.90
6244;DHT22;3155;49.940;8.450;2023-03-01T02:12:25;-2.70;99.90
6244;DHT22;3155;49.940;8.450;2023-03-01T02:14:54;-2.70;99.90
6244;DHT22;3155;49.940;8.450;2023-03-01T02:17:21;-2.60;99.90
6244;DHT22;3155;49.940;8.450;2023-03-01T02:22:28;-2.40;99.90
6244;DHT22;3155;49.940;8.450;2023-03-01T02:27:25;-2.20;99.90
6244;DHT22;3155;49.940;8.450;2023-03-01T02:29:54;-2.20;99.90
6244;DHT22;3155;49.940;8.450;2023-03-01T02:32:23;-2.20;99.90
6244;DHT22;3155;49.940;8.450;2023-03-01T02:34:55;-2.30;99.90
6244;DHT22;3155;49.940;8.450;2023-03-01T02:37:23;-2.30;99.90
6244;DHT22;3155;49.940;8.450;2023-03-01T02:40:04;-2.30;99.90
6244;DHT22;3155;49.940;8.450;2023-03-01T02:42:37;-2.30;99.90
6244;DHT22;3155;49.940;8.450;2023-03-01T02:45:07;-2.30;99.90
6244;DHT22;3155;49.940;8.450;2023-03-01T02:47:34;-2.30;99.90
6244;DHT22;3155;49.940;8.450;2023-03-01T02:50:01;-2.30;99.90
6244;DHT22;3155;49.940;8.450;2023-03-01T02:52:30;-2.20;99.90
6244;DHT22;3155;49.940;8.450;2023-03-01T02:55:07;-2.30;99.90
6244;DHT22;3155;49.940;8.450;2023-03-01T02:57:36;-2.30;99.90
6244;DHT22;3155;49.940;8.450;2023-03-01T03:00:08;-2.20;99.90
6244;DHT22;3155;49.940;8.450;2023-03-01T03:02:36;-2.20;99.90
6244;DHT22;3155;49.940;8.450;2023-03-01T03:05:06;-2.20;99.90
6244;DHT22;3155;49.940;8.450;2023-03-01T03:07:37;-2.20;99.90
6244;DHT22;3155;49.940;8.450;2023-03-01T03:10:07;-2.30;99.90
6244;DHT22;3155;49.940;8.450;2023-03-01T03:12:34;-2.30;99.90
6244;DHT22;3155;49.940;8.450;2023-03-01T03:15:01;-2.30;99.90
6244;DHT22;3155;49.940;8.450;2023-03-01T03:17:27;-2.20;99.90
6244;DHT22;3155;49.940;8.450;2023-03-01T03:19:54;-2.20;99.90
6244;DHT22;3155;49.940;8.450;2023-03-01T03:22:21;-2.20;99.90
6244;DHT22;3155;49.940;8.450;2023-03-01T03:24:48;-2.10;99.90
6244;DHT22;3155;49.940;8.450;2023-03-01T03:27:14;-2.10;99.90
6244;DHT22;3155;49.940;8.450;2023-03-01T03:29:47;-2.10;99.90
6244;DHT22;3155;49.940;8.450;2023-03-01T03:32:14;-2.10;99.90
6244;DHT22;3155;49.940;8.450;2023-03-01T03:34:41;-2.10;99.90
6244;DHT22;3155;49.940;8.450;2023-03-01T03:37:16;-2.10;99.90
6244;DHT22;3155;49.940;8.450;2023-03-01T03:40:02;-2.10;99.90
6244;DHT22;3155;49.940;8.450;2023-03-01T03:42:29;-2.10;99.90
6244;DHT22;3155;49.940;8.450;2023-03-01T03:44:56;-2.10;99.90
6244;DHT22;3155;49.940;8.450;2023-03-01T03:47:23;-2.00;99.90
6244;DHT22;3155;49.940;8.450;2023-03-01T03:49:50;-2.00;99.90
6244;DHT22;3155;49.940;8.450;2023-03-01T03:52:16;-2.00;99.90
6244;DHT22;3155;49.940;8.450;2023-03-01T03:54:49;-2.00;99.90
6244;DHT22;3155;49.940;8.450;2023-03-01T03:57:16;-2.00;99.90
6244;DHT22;3155;49.940;8.450;2023-03-01T03:59:42;-1.90;99.90
6244;DHT22;3155;49.940;8.450;2023-03-01T04:02:09;-1.90;99.90
6244;DHT22;3155;49.940;8.450;2023-03-01T04:04:36;-1.90;99.90
6244;DHT22;3155;49.940;8.450;2023-03-01T04:07:02;-1.90;99.90
6244;DHT22;3155;49.940;8.450;2023-03-01T04:09:29;-1.90;99.90
6244;DHT22;3155;49.940;8.450;2023-03-01T04:11:56;-1.90;99.90
6244;DHT22;3155;49.940;8.450;2023-03-01T04:14:23;-2.00;99.90
6244;DHT22;3155;49.940;8.450;2023-03-01T04:16:50;-1.90;99.90
6244;DHT22;3155;49.940;8.450;2023-03-01T04:19:17;-2.00;99.90
6244;DHT22;3155;49.940;8.450;2023-03-01T04:21:43;-2.00;99.90
6244;DHT22;3155;49.940;8.450;2023-03-01T04:24:10;-2.00;99.90
6244;DHT22;3155;49.940;8.450;2023-03-01T04:26:37;-2.10;99.90
6244;DHT22;3155;49.940;8.450;2023-03-01T04:29:04;-2.10;99.90
6244;DHT22;3155;49.940;8.450;2023-03-01T04:31:30;-2.10;99.90
6244;DHT22;3155;49.940;8.450;2023-03-01T04:33:57;-2.10;99.90
6244;DHT22;3155;49.940;8.450;2023-03-01T04:36:26;-2.20;99.90
6244;DHT22;3155;49.940;8.450;2023-03-01T04:38:55;-2.30;99.90
6244;DHT22;3155;49.940;8.450;2023-03-01T04:41:23;-2.30;99.90
6244;DHT22;3155;49.940;8.450;2023-03-01T04:43:51;-2.40;99.90
6244;DHT22;3155;49.940;8.450;2023-03-01T04:46:20;-2.40;99.90
6244;DHT22;3155;49.940;8.450;2023-03-01T04:48:48;-2.30;99.90
6244;DHT22;3155;49.940;8.450;2023-03-01T04:51:15;-2.30;99.90
6244;DHT22;3155;49.940;8.450;2023-03-01T04:53:43;-2.40;99.90
6244;DHT22;3155;49.940;8.450;2023-03-01T04:56:10;-2.30;99.90
6244;DHT22;3155;49.940;8.450;2023-03-01T04:58:37;-2.30;99.90
6244;DHT22;3155;49.940;8.450;2023-03-01T05:01:18;-2.40;99.90
6244;DHT22;3155;49.940;8.450;2023-03-01T05:03:50;-2.40;99.90
6244;DHT22;3155;49.940;8.450;2023-03-01T05:06:19;-2.50;99.90
6244;DHT22;3155;49.940;8.450;2023-03-01T05:08:45;-2.50;99.90
6244;DHT22;3155;49.940;8.450;2023-03-01T05:11:12;-2.40;99.90
6244;DHT22;3155;49.940;8.450;2023-03-01T05:13:40;-2.40;99.90
6244;DHT22;3155;49.940;8.450;2023-03-01T05:16:07;-2.30;99.90
6244;DHT22;3155;49.940;8.450;2023-03-01T05:18:38;-2.40;99.90
6244;DHT22;3155;49.940;8.450;2023-03-01T05:21:08;-2.40;99.90
6244;DHT22;3155;49.940;8.450;2023-03-01T05:23:37;-2.40;99.90
6244;DHT22;3155;49.940;8.450;2023-03-01T05:26:05;-2.40;99.90
6244;DHT22;3155;49.940;8.450;2023-03-01T05:28:37;-2.40;99.90
6244;DHT22;3155;49.940;8.450;2023-03-01T05:31:05;-2.30;99.90
6244;DHT22;3155;49.940;8.450;2023-03-01T05:33:40;-2.20;99.90
6244;DHT22;3155;49.940;8.450;2023-03-01T05:36:08;-2.20;99.90
6244;DHT22;3155;49.940;8.450;2023-03-01T05:38:36;-2.20;99.90
6244;DHT22;3155;49.940;8.450;2023-03-01T05:41:03;-2.10;99.90
6244;DHT22;3155;49.940;8.450;2023-03-01T05:43:32;-2.10;99.90
6244;DHT22;3155;49.940;8.450;2023-03-01T05:46:00;-2.00;99.90
6244;DHT22;3155;49.940;8.450;2023-03-01T05:48:27;-2.00;99.90
6244;DHT22;3155;49.940;8.450;2023-03-01T05:50:54;-1.90;99.90
6244;DHT22;3155;49.940;8.450;2023-03-01T05:53:20;-1.90;99.90
6244;DHT22;3155;49.940;8.450;2023-03-01T05:55:48;-1.90;99.90
6244;DHT22;3155;49.940;8.450;2023-03-01T05:58:19;-1.90;99.90
6244;DHT22;3155;49.940;8.450;2023-03-01T06:00:48;-1.90;99.90
6244;DHT22;3155;49.940;8.450;2023-03-01T06:03:16;-1.90;99.90
6244;DHT22;3155;49.940;8.450;2023-03-01T06:05:43;-1.90;99.90
6244;DHT22;3155;49.940;8.450;2023-03-01T06:08:12;-1.90;99.90
6244;DHT22;3155;49.940;8.450;2023-03-01T06:10:42;-2.00;99.90
6244;DHT22;3155;49.940;8.450;2023-03-01T06:13:09;-2.00;99.90
6244;DHT22;3155;49.940;8.450;2023-03-01T06:15:36;-2.00;99.90
6244;DHT22;3155;49.940;8.450;2023-03-01T06:18:03;-1.90;99.90
6244;DHT22;3155;49.940;8.450;2023-03-01T06:20:30;-2.00;99.90
6244;DHT22;3155;49.940;8.450;2023-03-01T06:22:57;-1.90;99.90
6244;DHT22;3155;49.940;8.450;2023-03-01T06:25:25;-1.90;99.90
6244;DHT22;3155;49.940;8.450;2023-03-01T06:27:53;-1.80;99.90
6244;DHT22;3155;49.940;8.450;2023-03-01T06:30:21;-1.70;99.90
6244;DHT22;3155;49.940;8.450;2023-03-01T06:32:48;-1.70;99.90
6244;DHT22;3155;49.940;8.450;2023-03-01T06:35:16;-1.60;99.90
6244;DHT22;3155;49.940;8.450;2023-03-01T06:37:45;-1.60;99.90
6244;DHT22;3155;49.940;8.450;2023-03-01T06:40:12;-1.50;99.90
6244;DHT22;3155;49.940;8.450;2023-03-01T06:42:42;-1.40;99.90
6244;DHT22;3155;49.940;8.450;2023-03-01T06:45:10;-1.40;99.90
6244;DHT22;3155;49.940;8.450;2023-03-01T06:47:40;-1.30;99.90
6244;DHT22;3155;49.940;8.450;2023-03-01T06:50:07;-1.30;99.90
6244;DHT22;3155;49.940;8.450;2023-03-01T06:52:34;-1.30;99.90
6244;DHT22;3155;49.940;8.450;2023-03-01T06:55:01;-1.40;99.90
6244;DHT22;3155;49.940;8.450;2023-03-01T06:57:28;-1.40;99.90
6244;DHT22;3155;49.940;8.450;2023-03-01T06:59:57;-1.40;99.90
6244;DHT22;3155;49.940;8.450;2023-03-01T07:02:23;-1.30;99.90
6244;DHT22;3155;49.940;8.450;2023-03-01T07:04:51;-1.30;99.90
6244;DHT22;3155;49.940;8.450;2023-03-01T07:07:18;-1.30;99.90
6244;DHT22;3155;49.940;8.450;2023-03-01T07:09:46;-1.30;99.90
6244;DHT22;3155;49.940;8.450;2023-03-01T07:12:13;-1.30;99.90
6244;DHT22;3155;49.940;8.450;2023-03-01T07:14:40;-1.30;99.90
6244;DHT22;3155;49.940;8.450;2023-03-01T07:17:07;-1.30;99.90
6244;DHT22;3155;49.940;8.450;2023-03-01T07:19:35;-1.30;99.90
6244;DHT22;3155;49.940;8.450;2023-03-01T07:22:03;-1.20;99.90
6244;DHT22;3155;49.940;8.450;2023-03-01T07:24:30;-1.10;99.90
6244;DHT22;3155;49.940;8.450;2023-03-01T07:26:57;-1.00;99.90
6244;DHT22;3155;49.940;8.450;2023-03-01T07:29:24;-0.90;99.90
6244;DHT22;3155;49.940;8.450;2023-03-01T07:31:51;-0.70;99.90
6244;DHT22;3155;49.940;8.450;2023-03-01T07:34:17;-0.60;99.90
6244;DHT22;3155;49.940;8.450;2023-03-01T07:36:44;-0.40;99.90
6244;DHT22;3155;49.940;8.450;2023-03-01T07:39:12;-0.20;99.90
6244;DHT22;3155;49.940;8.450;2023-03-01T07:41:39;0.00;99.90
6244;DHT22;3155;49.940;8.450;2023-03-01T07:44:06;0.30;99.90
6244;DHT22;3155;49.940;8.450;2023-03-01T07:46:32;0.50;99.90
6244;DHT22;3155;49.940;8.450;2023-03-01T07:48:59;0.80;99.90
6244;DHT22;3155;49.940;8.450;2023-03-01T07:51:29;1.10;99.90
6244;DHT22;3155;49.940;8.450;2023-03-01T07:53:58;1.20;99.90
6244;DHT22;3155;49.940;8.450;2023-03-01T07:56:25;1.40;99.90
6244;DHT22;3155;49.940;8.450;2023-03-01T07:58:52;1.50;99.90
6244;DHT22;3155;49.940;8.450;2023-03-01T08:01:21;1.70;99.90
6244;DHT22;3155;49.940;8.450;2023-03-01T08:03:48;1.90;99.90
6244;DHT22;3155;49.940;8.450;2023-03-01T08:06:16;2.10;99.90
6244;DHT22;3155;49.940;8.450;2023-03-01T08:08:46;2.10;99.90
6244;DHT22;3155;49.940;8.450;2023-03-01T08:11:17;2.20;99.90
6244;DHT22;3155;49.940;8.450;2023-03-01T08:13:49;2.30;99.90
6244;DHT22;3155;49.940;8.450;2023-03-01T08:16:18;2.30;99.90
6244;DHT22;3155;49.940;8.450;2023-03-01T08:18:45;2.10;99.90
6244;DHT22;3155;49.940;8.450;2023-03-01T08:21:15;2.20;99.90
6244;DHT22;3155;49.940;8.450;2023-03-01T08:23:43;2.50;99.90
6244;DHT22;3155;49.940;8.450;2023-03-01T08:26:18;2.80;99.90
6244;DHT22;3155;49.940;8.450;2023-03-01T08:28:49;3.10;99.90
6244;DHT22;3155;49.940;8.450;2023-03-01T08:31:37;3.30;99.90
6244;DHT22;3155;49.940;8.450;2023-03-01T08:34:07;3.40;99.90
6244;DHT22;3155;49.940;8.450;2023-03-01T08:36:43;3.60;99.90
6244;DHT22;3155;49.940;8.450;2023-03-01T08:39:15;3.80;99.90
6244;DHT22;3155;49.940;8.450;2023-03-01T08:41:42;3.90;99.90
6244;DHT22;3155;49.940;8.450;2023-03-01T08:44:13;4.10;99.90
6244;DHT22;3155;49.940;8.450;2023-03-01T08:46:46;4.30;99.90
6244;DHT22;3155;49.940;8.450;2023-03-01T08:49:17;4.40;99.90
6244;DHT22;3155;49.940;8.450;2023-03-01T08:51:46;4.40;99.90
6244;DHT22;3155;49.940;8.450;2023-03-01T08:54:15;4.40;99.90
6244;DHT22;3155;49.940;8.450;2023-03-01T08:56:42;4.50;99.90
6244;DHT22;3155;49.940;8.450;2023-03-01T08:59:12;4.30;99.90
6244;DHT22;3155;49.940;8.450;2023-03-01T09:01:40;4.20;99.90
6244;DHT22;3155;49.940;8.450;2023-03-01T09:04:11;3.90;99.90
6244;DHT22;3155;49.940;8.450;2023-03-01T09:06:38;3.80;99.90
6244;DHT22;3155;49.940;8.450;2023-03-01T09:09:05;3.80;99.90
6244;DHT22;3155;49.940;8.450;2023-03-01T09:11:32;3.90;99.90
6244;DHT22;3155;49.940;8.450;2023-03-01T09:14:00;3.90;99.90
6244;DHT22;3155;49.940;8.450;2023-03-01T09:16:26;4.10;99.90
6244;DHT22;3155;49.940;8.450;2023-03-01T09:18:54;4.30;99.90
6244;DHT22;3155;49.940;8.450;2023-03-01T09:21:22;4.30;99.90
6244;DHT22;3155;49.940;8.450;2023-03-01T09:24:13;4.20;99.90
6244;DHT22;3155;49.940;8.450;2023-03-01T09:26:41;4.20;99.90
6244;DHT22;3155;49.940;8.450;2023-03-01T09:29:08;4.70;99.90
6244;DHT22;3155;49.940;8.450;2023-03-01T09:31:38;4.90;99.90
6244;DHT22;3155;49.940;8.450;2023-03-01T09:34:05;5.00;99.90
6244;DHT22;3155;49.940;8.450;2023-03-01T09:36:33;5.00;99.90
6244;DHT22;3155;49.940;8.450;2023-03-01T09:39:00;5.10;99.90
6244;DHT22;3155;49.940;8.450;2023-03-01T09:44:30;5.30;99.90
6244;DHT22;3155;49.940;8.450;2023-03-01T09:46:59;5.60;99.90
6244;DHT22;3155;49.940;8.450;2023-03-01T09:49:32;5.70;99.90
6244;DHT22;3155;49.940;8.450;2023-03-01T09:54:57;5.70;99.90
6244;DHT22;3155;49.940;8.450;2023-03-01T09:57:36;6.00;99.90
6244;DHT22;3155;49.940;8.450;2023-03-01T10:00:33;6.20;99.90
6244;DHT22;3155;49.940;8.450;2023-03-01T10:03:16;6.00;99.90
6244;DHT22;3155;49.940;8.450;2023-03-01T10:05:52;5.80;99.90
6244;DHT22;3155;49.940;8.450;2023-03-01T10:10:58;6.40;99.90
6244;DHT22;3155;49.940;8.450;2023-03-01T10:13:31;6.50;99.90
6244;DHT22;3155;49.940;8.450;2023-03-01T10:16:11;6.80;99.90
6244;DHT22;3155;49.940;8.450;2023-03-01T10:18:40;6.90;99.90
6244;DHT22;3155;49.940;8.450;2023-03-01T10:21:16;6.60;99.90
6244;DHT22;3155;49.940;8.450;2023-03-01T10:23:50;6.80;99.90
6244;DHT22;3155;49.940;8.450;2023-03-01T10:29:23;7.50;99.90
6244;DHT22;3155;49.940;8.450;2023-03-01T10:31:52;7.70;99.90
6244;DHT22;3155;49.940;8.450;2023-03-01T10:34:34;7.80;99.90
6244;DHT22;3155;49.940;8.450;2023-03-01T10:37:22;7.70;99.90
6244;DHT22;3155;49.940;8.450;2023-03-01T10:40:10;7.80;99.90
6244;DHT22;3155;49.940;8.450;2023-03-01T10:42:48;7.70;99.90
6244;DHT22;3155;49.940;8.450;2023-03-01T10:48:05;7.90;99.90
6244;DHT22;3155;49.940;8.450;2023-03-01T10:50:32;8.20;99.90
6244;DHT22;3155;49.940;8.450;2023-03-01T10:53:04;8.30;99.90
6244;DHT22;3155;49.940;8.450;2023-03-01T10:55:34;8.30;99.90
6244;DHT22;3155;49.940;8.450;2023-03-01T10:58:18;8.20;99.90
6244;DHT22;3155;49.940;8.450;2023-03-01T11:00:47;8.30;99.90
6244;DHT22;3155;49.940;8.450;2023-03-01T11:03:18;8.40;99.90
6244;DHT22;3155;49.940;8.450;2023-03-01T11:08:49;8.60;99.90
6244;DHT22;3155;49.940;8.450;2023-03-01T11:11:34;8.70;99.90
6244;DHT22;3155;49.940;8.450;2023-03-01T11:14:20;8.70;99.90
6244;DHT22;3155;49.940;8.450;2023-03-01T11:17:30;9.00;99.90
6244;DHT22;3155;49.940;8.450;2023-03-01T11:22:53;9.30;99.90
6244;DHT22;3155;49.940;8.450;2023-03-01T11:25:25;9.40;99.90
6244;DHT22;3155;49.940;8.450;2023-03-01T11:27:53;9.60;99.90
6244;DHT22;3155;49.940;8.450;2023-03-01T11:30:29;9.80;99.90
6244;DHT22;3155;49.940;8.450;2023-03-01T11:33:11;9.80;99.90
6244;DHT22;3155;49.940;8.450;2023-03-01T11:35:46;9.50;99.90
6244;DHT22;3155;49.940;8.450;2023-03-01T11:38:22;9.30;99.90
6244;DHT22;3155;49.940;8.450;2023-03-01T11:40:52;9.50;99.90
6244;DHT22;3155;49.940;8.450;2023-03-01T11:48:52;9.70;99.90
6244;DHT22;3155;49.940;8.450;2023-03-01T11:54:41;9.70;99.90
6244;DHT22;3155;49.940;8.450;2023-03-01T12:03:14;9.80;99.90
6244;DHT22;3155;49.940;8.450;2023-03-01T12:11:33;10.00;99.90
6244;DHT22;3155;49.940;8.450;2023-03-01T12:25:05;10.80;99.90
6244;DHT22;3155;49.940;8.450;2023-03-01T12:30:42;11.00;99.90
6244;DHT22;3155;49.940;8.450;2023-03-01T12:33:22;11.20;99.90
6244;DHT22;3155;49.940;8.450;2023-03-01T12:36:24;11.00;99.90
6244;DHT22;3155;49.940;8.450;2023-03-01T12:41:51;10.60;99.90
6244;DHT22;3155;49.940;8.450;2023-03-01T12:50:21;10.30;99.90
6244;DHT22;3155;49.940;8.450;2023-03-01T12:55:35;10.50;99.90
6244;DHT22;3155;49.940;8.450;2023-03-01T12:58:43;10.40;99.90
6244;DHT22;3155;49.940;8.450;2023-03-01T13:18:00;11.30;99.90
6244;DHT22;3155;49.940;8.450;2023-03-01T13:20:48;11.10;99.90
6244;DHT22;3155;49.940;8.450;2023-03-01T13:26:16;11.10;99.90
6244;DHT22;3155;49.940;8.450;2023-03-01T13:34:03;10.90;99.90
6244;DHT22;3155;49.940;8.450;2023-03-01T13:41:52;11.80;99.90
6244;DHT22;3155;49.940;8.450;2023-03-01T13:44:37;12.20;99.90
6244;DHT22;3155;49.940;8.450;2023-03-01T13:49:59;12.10;99.90
6244;DHT22;3155;49.940;8.450;2023-03-01T13:52:39;11.70;99.90
6244;DHT22;3155;49.940;8.450;2023-03-01T13:55:23;11.70;99.90
6244;DHT22;3155;49.940;8.450;2023-03-01T13:57:55;10.90;99.90
6244;DHT22;3155;49.940;8.450;2023-03-01T14:00:27;11.20;99.90
6244;DHT22;3155;49.940;8.450;2023-03-01T14:03:14;11.70;99.90
6244;DHT22;3155;49.940;8.450;2023-03-01T14:06:19;12.00;99.90
6244;DHT22;3155;49.940;8.450;2023-03-01T14:08:43;11.90;99.90
6244;DHT22;3155;49.940;8.450;2023-03-01T14:14:33;12.10;99.90
6244;DHT22;3155;49.940;8.450;2023-03-01T14:19:36;11.80;99.90
6244;DHT22;3155;49.940;8.450;2023-03-01T14:22:22;11.30;99.90
6244;DHT22;3155;49.940;8.450;2023-03-01T14:24:52;11.60;99.90
6244;DHT22;3155;49.940;8.450;2023-03-01T14:27:20;11.90;99.90
6244;DHT22;3155;49.940;8.450;2023-03-01T14:30:03;11.80;99.90
6244;DHT22;3155;49.940;8.450;2023-03-01T14:32:31;11.80;99.90
6244;DHT22;3155;49.940;8.450;2023-03-01T14:35:00;12.00;99.90
6244;DHT22;3155;49.940;8.450;2023-03-01T14:37:32;11.90;99.90
6244;DHT22;3155;49.940;8.450;2023-03-01T14:40:01;12.00;99.90
6244;DHT22;3155;49.940;8.450;2023-03-01T14:42:33;11.70;99.90
6244;DHT22;3155;49.940;8.450;2023-03-01T14:45:01;11.70;99.90
6244;DHT22;3155;49.940;8.450;2023-03-01T14:47:32;11.70;99.90
6244;DHT22;3155;49.940;8.450;2023-03-01T14:50:07;11.60;99.90
6244;DHT22;3155;49.940;8.450;2023-03-01T14:52:37;12.00;99.90
6244;DHT22;3155;49.940;8.450;2023-03-01T14:55:33;12.40;99.90
6244;DHT22;3155;49.940;8.450;2023-03-01T14:58:04;12.80;99.90
6244;DHT22;3155;49.940;8.450;2023-03-01T15:00:33;12.50;99.90
6244;DHT22;3155;49.940;8.450;2023-03-01T15:03:11;12.00;99.90
6244;DHT22;3155;49.940;8.450;2023-03-01T15:05:42;11.90;99.90
6244;DHT22;3155;49.940;8.450;2023-03-01T15:08:18;11.70;99.90
6244;DHT22;3155;49.940;8.450;2023-03-01T15:11:04;11.60;99.90
6244;DHT22;3155;49.940;8.450;2023-03-01T15:13:35;11.90;99.90
6244;DHT22;3155;49.940;8.450;2023-03-01T15:16:14;12.00;99.90
6244;DHT22;3155;49.940;8.450;2023-03-01T15:18:52;11.80;99.90
6244;DHT22;3155;49.940;8.450;2023-03-01T15:24:24;11.50;99.90
6244;DHT22;3155;49.940;8.450;2023-03-01T15:26:52;11.20;99.90
6244;DHT22;3155;49.940;8.450;2023-03-01T15:29:29;11.20;99.90
6244;DHT22;3155;49.940;8.450;2023-03-01T15:32:02;11.30;99.90
6244;DHT22;3155;49.940;8.450;2023-03-01T15:34:38;11.20;99.90
6244;DHT22;3155;49.940;8.450;2023-03-01T15:40:01;10.90;99.90
6244;DHT22;3155;49.940;8.450;2023-03-01T15:47:39;10.80;99.90
6244;DHT22;3155;49.940;8.450;2023-03-01T15:50:17;9.30;99.90
6244;DHT22;3155;49.940;8.450;2023-03-01T15:52:45;8.70;99.90
6244;DHT22;3155;49.940;8.450;2023-03-01T15:55:20;8.20;99.90
6244;DHT22;3155;49.940;8.450;2023-03-01T15:57:48;7.90;99.90
6244;DHT22;3155;49.940;8.450;2023-03-01T16:00:16;7.70;99.90
6244;DHT22;3155;49.940;8.450;2023-03-01T16:02:44;7.50;99.90
6244;DHT22;3155;49.940;8.450;2023-03-01T16:05:30;7.40;99.90
6244;DHT22;3155;49.940;8.450;2023-03-01T16:07:57;7.30;99.90
6244;DHT22;3155;49.940;8.450;2023-03-01T16:10:24;7.20;99.90
6244;DHT22;3155;49.940;8.450;2023-03-01T16:12:51;7.10;99.90
6244;DHT22;3155;49.940;8.450;2023-03-01T16:15:21;7.10;99.90
6244;DHT22;3155;49.940;8.450;2023-03-01T16:17:49;7.00;99.90
6244;DHT22;3155;49.940;8.450;2023-03-01T16:20:16;6.90;99.90
6244;DHT22;3155;49.940;8.450;2023-03-01T16:22:54;6.90;99.90
6244;DHT22;3155;49.940;8.450;2023-03-01T16:25:21;6.90;99.90
6244;DHT22;3155;49.940;8.450;2023-03-01T16:27:50;6.90;99.90
6244;DHT22;3155;49.940;8.450;2023-03-01T16:30:19;7.10;99.90
6244;DHT22;3155;49.940;8.450;2023-03-01T16:32:48;7.30;99.90
6244;DHT22;3155;49.940;8.450;2023-03-01T16:35:27;7.30;99.90
6244;DHT22;3155;49.940;8.450;2023-03-01T16:37:54;7.20;99.90
6244;DHT22;3155;49.940;8.450;2023-03-01T16:40:28;7.00;99.90
6244;DHT22;3155;49.940;8.450;2023-03-01T16:42:57;6.80;99.90
6244;DHT22;3155;49.940;8.450;2023-03-01T16:45:35;6.50;99.90
6244;DHT22;3155;49.940;8.450;2023-03-01T16:48:03;6.30;99.90
6244;DHT22;3155;49.940;8.450;2023-03-01T16:50:30;6.10;99.90
6244;DHT22;3155;49.940;8.450;2023-03-01T16:52:57;6.00;99.90
6244;DHT22;3155;49.940;8.450;2023-03-01T16:55:24;5.80;99.90
6244;DHT22;3155;49.940;8.450;2023-03-01T16:57:53;5.70;99.90
6244;DHT22;3155;49.940;8.450;2023-03-01T17:00:20;5.70;99.90
6244;DHT22;3155;49.940;8.450;2023-03-01T17:02:47;5.60;99.90
6244;DHT22;3155;49.940;8.450;2023-03-01T17:05:14;5.40;99.90
6244;DHT22;3155;49.940;8.450;2023-03-01T17:07:40;5.20;99.90
6244;DHT22;3155;49.940;8.450;2023-03-01T17:10:10;5.20;99.90
6244;DHT22;3155;49.940;8.450;2023-03-01T17:12:38;5.00;99.90
6244;DHT22;3155;49.940;8.450;2023-03-01T17:15:07;4.80;99.90
6244;DHT22;3155;49.940;8.450;2023-03-01T17:17:36;4.80;99.90
6244;DHT22;3155;49.940;8.450;2023-03-01T17:20:08;4.80;99.90
6244;DHT22;3155;49.940;8.450;2023-03-01T17:22:36;4.70;99.90
6244;DHT22;3155;49.940;8.450;2023-03-01T17:25:03;4.70;99.90
6244;DHT22;3155;49.940;8.450;2023-03-01T17:27:30;4.50;99.90
6244;DHT22;3155;49.940;8.450;2023-03-01T17:30:01;4.40;99.90
6244;DHT22;3155;49.940;8.450;2023-03-01T17:32:28;4.40;99.90
6244;DHT22;3155;49.940;8.450;2023-03-01T17:34:55;4.30;99.90
6244;DHT22;3155;49.940;8.450;2023-03-01T17:37:22;4.10;99.90
6244;DHT22;3155;49.940;8.450;2023-03-01T17:39:48;4.10;99.90
6244;DHT22;3155;49.940;8.450;2023-03-01T17:42:15;4.10;99.90
6244;DHT22;3155;49.940;8.450;2023-03-01T17:44:42;4.00;99.90
6244;DHT22;3155;49.940;8.450;2023-03-01T17:47:10;4.00;99.90
6244;DHT22;3155;49.940;8.450;2023-03-01T17:49:37;4.00;99.90
6244;DHT22;3155;49.940;8.450;2023-03-01T17:52:03;3.80;99.90
6244;DHT22;3155;49.940;8.450;2023-03-01T17:54:30;3.70;99.90
6244;DHT22;3155;49.940;8.450;2023-03-01T17:56:59;3.60;99.90
6244;DHT22;3155;49.940;8.450;2023-03-01T17:59:26;3.50;99.90
6244;DHT22;3155;49.940;8.450;2023-03-01T18:02:01;3.50;99.90
6244;DHT22;3155;49.940;8.450;2023-03-01T18:04:28;3.60;99.90
6244;DHT22;3155;49.940;8.450;2023-03-01T18:06:55;3.60;99.90
6244;DHT22;3155;49.940;8.450;2023-03-01T18:09:22;3.60;99.90
6244;DHT22;3155;49.940;8.450;2023-03-01T18:11:49;3.50;99.90
6244;DHT22;3155;49.940;8.450;2023-03-01T18:14:16;3.60;99.90
6244;DHT22;3155;49.940;8.450;2023-03-01T18:16:44;3.60;99.90
6244;DHT22;3155;49.940;8.450;2023-03-01T18:19:11;3.60;99.90
6244;DHT22;3155;49.940;8.450;2023-03-01T18:21:38;3.50;99.90
6244;DHT22;3155;49.940;8.450;2023-03-01T18:24:08;3.50;99.90
6244;DHT22;3155;49.940;8.450;2023-03-01T18:26:37;3.50;99.90
6244;DHT22;3155;49.940;8.450;2023-03-01T18:29:06;3.50;99.90
6244;DHT22;3155;49.940;8.450;2023-03-01T18:31:33;3.60;99.90